Time;durP1;ratioP1;P1;durP2;ratioP2;P2;SDS_P1;SDS_P2;PMS_P1;PMS_P2;Temp;Humidity;BMP_temperature;BMP_pressure;BME280_temperature;BME280_humidity;BME280_pressure;Samples;Min_cycle;Max_cycle;Signal;HPM_P1;HPM_P2
2022/02/24 00:00:00;;;;;;;55.22;26.67;;;;;;;;;;5113174;28;20039;-48
2022/02/24 00:02:26;;;;;;;52.42;23.40;;;;;;;;;;5113053;28;20098;-47
2022/02/24 00:04:52;;;;;;;56.17;25.73;;;;;;;;;;5113087;28;20031;-50
2022/02/24 00:07:18;;;;;;;45.85;21.48;;;;;;;;;;5114416;28;20035;-49
2022/02/24 00:09:47;;;;;;;44.00;20.92;;;;;;;;;;5116554;28;20027;-49
2022/02/24 00:12:13;;;;;;;36.95;16.08;;;;;;;;;;5116395;28;20034;-49
2022/02/24 00:14:39;;;;;;;32.55;16.83;;;;;;;;;;5116412;28;20036;-49
2022/02/24 00:17:07;;;;;;;30.80;14.55;;;;;;;;;;5116350;28;20020;-49
2022/02/24 00:19:33;;;;;;;33.83;15.70;;;;;;;;;;5116395;28;20035;-49
2022/02/24 00:22:00;;;;;;;36.40;16.90;;;;;;;;;;5116381;28;20027;-49
2022/02/24 00:24:26;;;;;;;33.15;16.13;;;;;;;;;;5116494;28;20023;-47
2022/02/24 00:26:52;;;;;;;41.47;19.98;;;;;;;;;;5116177;28;20023;-49
2022/02/24 00:29:18;;;;;;;43.15;20.77;;;;;;;;;;5116061;28;20509;-48
2022/02/24 00:31:45;;;;;;;28.10;11.60;;;;;;;;;;5116155;28;20027;-49
2022/02/24 00:34:11;;;;;;;37.83;15.65;;;;;;;;;;5116134;28;20486;-49
2022/02/24 00:36:37;;;;;;;27.42;13.02;;;;;;;;;;5116051;28;20031;-48
2022/02/24 00:39:04;;;;;;;25.08;13.20;;;;;;;;;;5115953;28;20126;-48
2022/02/24 00:41:30;;;;;;;22.55;12.32;;;;;;;;;;5116006;28;20466;-48
2022/02/24 00:43:56;;;;;;;49.80;23.80;;;;;;;;;;5115831;28;20140;-48
2022/02/24 00:46:22;;;;;;;26.67;11.88;;;;;;;;;;5116101;28;20027;-49
2022/02/24 00:48:48;;;;;;;31.83;15.25;;;;;;;;;;5115916;28;20023;-49
2022/02/24 00:51:14;;;;;;;35.42;17.63;;;;;;;;;;5115756;28;20467;-49
2022/02/24 00:53:41;;;;;;;26.70;12.90;;;;;;;;;;5115679;28;20102;-49
2022/02/24 00:56:10;;;;;;;30.52;15.20;;;;;;;;;;5115710;28;20463;-49
2022/02/24 00:58:38;;;;;;;29.42;14.00;;;;;;;;;;5115356;28;20533;-48
2022/02/24 01:01:04;;;;;;;35.63;14.85;;;;;;;;;;5115692;28;20032;-49
2022/02/24 01:03:30;;;;;;;49.55;23.90;;;;;;;;;;5115460;28;20031;-49
2022/02/24 01:05:57;;;;;;;39.55;18.85;;;;;;;;;;5115386;28;20407;-49
2022/02/24 01:08:23;;;;;;;26.83;12.82;;;;;;;;;;5115509;28;20024;-47
2022/02/24 01:10:49;;;;;;;27.42;11.65;;;;;;;;;;5115505;28;20034;-48
2022/02/24 01:13:15;;;;;;;38.53;18.77;;;;;;;;;;5115150;28;20457;-47
2022/02/24 01:15:42;;;;;;;30.67;13.10;;;;;;;;;;5115453;28;20028;-47
2022/02/24 01:18:14;;;;;;;38.60;18.30;;;;;;;;;;5114713;28;20081;-48
2022/02/24 01:20:40;;;;;;;26.27;12.80;;;;;;;;;;5115270;28;20397;-49
2022/02/24 01:23:06;;;;;;;30.23;14.57;;;;;;;;;;5115228;28;20077;-49
2022/02/24 01:25:33;;;;;;;30.45;14.18;;;;;;;;;;5115124;28;20024;-48
2022/02/24 01:28:03;;;;;;;24.48;11.90;;;;;;;;;;5114869;28;20081;-49
2022/02/24 01:30:30;;;;;;;19.92;9.05;;;;;;;;;;5114879;28;20071;-48
2022/02/24 01:32:56;;;;;;;32.15;15.07;;;;;;;;;;5114802;28;20504;-49
2022/02/24 01:35:22;;;;;;;28.08;14.32;;;;;;;;;;5096739;28;20035;-49
2022/02/24 01:37:49;;;;;;;26.27;12.57;;;;;;;;;;5114772;28;20023;-49
2022/02/24 01:40:15;;;;;;;23.27;11.25;;;;;;;;;;5114902;28;20026;-50
2022/02/24 01:42:42;;;;;;;31.42;15.85;;;;;;;;;;5114701;28;20340;-49
2022/02/24 01:45:11;;;;;;;38.65;19.70;;;;;;;;;;5114761;28;20062;-47
2022/02/24 01:47:37;;;;;;;28.15;15.07;;;;;;;;;;5114757;28;20027;-50
2022/02/24 01:50:05;;;;;;;28.52;13.63;;;;;;;;;;5114622;28;20023;-47
2022/02/24 01:52:33;;;;;;;30.88;15.05;;;;;;;;;;5114711;28;20077;-47
2022/02/24 01:54:59;;;;;;;26.23;13.00;;;;;;;;;;5114441;28;20035;-49
2022/02/24 01:57:30;;;;;;;21.27;10.30;;;;;;;;;;5114298;28;20028;-48
2022/02/24 01:59:56;;;;;;;16.63;8.73;;;;;;;;;;5114656;28;20062;-46
2022/02/24 02:02:22;;;;;;;27.27;10.77;;;;;;;;;;5114306;28;20051;-47
2022/02/24 02:04:48;;;;;;;30.23;15.35;;;;;;;;;;5114377;28;20484;-49
2022/02/24 02:07:15;;;;;;;16.92;7.05;;;;;;;;;;5114342;28;20069;-49
2022/02/24 02:09:41;;;;;;;17.25;8.90;;;;;;;;;;5114207;28;20023;-48
2022/02/24 02:12:07;;;;;;;22.38;9.82;;;;;;;;;;5114664;28;20463;-48
2022/02/24 02:14:33;;;;;;;20.10;9.00;;;;;;;;;;5114351;28;20019;-50
2022/02/24 02:17:00;;;;;;;19.88;9.10;;;;;;;;;;5114118;28;20055;-49
2022/02/24 02:19:28;;;;;;;24.63;12.75;;;;;;;;;;5114192;28;20360;-49
2022/02/24 02:21:54;;;;;;;25.95;12.10;;;;;;;;;;5114149;28;20020;-49
2022/02/24 02:24:20;;;;;;;21.48;10.90;;;;;;;;;;5114022;28;20024;-49
2022/02/24 02:26:50;;;;;;;27.33;12.38;;;;;;;;;;5113888;28;20020;-47
2022/02/24 02:29:16;;;;;;;23.67;13.05;;;;;;;;;;5113152;28;20498;-47
2022/02/24 02:31:43;;;;;;;38.35;19.17;;;;;;;;;;5113721;28;20039;-49
2022/02/24 02:34:10;;;;;;;30.90;16.33;;;;;;;;;;5113931;28;20020;-49
2022/02/24 02:36:37;;;;;;;29.85;15.77;;;;;;;;;;5113898;28;20143;-50
2022/02/24 02:39:04;;;;;;;30.80;14.15;;;;;;;;;;5113752;28;20432;-51
2022/02/24 02:41:31;;;;;;;30.92;14.77;;;;;;;;;;5113688;28;20023;-50
2022/02/24 02:44:00;;;;;;;25.15;11.95;;;;;;;;;;5095391;28;20028;-49
2022/02/24 02:46:26;;;;;;;32.05;16.60;;;;;;;;;;5113672;28;20483;-49
2022/02/24 02:48:52;;;;;;;28.17;13.32;;;;;;;;;;5113767;28;20028;-48
2022/02/24 02:51:18;;;;;;;22.90;11.55;;;;;;;;;;5113783;28;20023;-50
2022/02/24 02:53:44;;;;;;;22.75;11.07;;;;;;;;;;5113620;28;20429;-47
2022/02/24 02:56:11;;;;;;;27.83;11.07;;;;;;;;;;5113723;28;20036;-49
2022/02/24 02:58:37;;;;;;;26.13;10.32;;;;;;;;;;5113362;28;20035;-49
2022/02/24 03:01:03;;;;;;;22.60;11.13;;;;;;;;;;5113604;28;20034;-48
2022/02/24 03:03:29;;;;;;;22.90;10.68;;;;;;;;;;5113591;28;20024;-49
2022/02/24 03:05:56;;;;;;;22.50;10.40;;;;;;;;;;5113498;28;20470;-48
2022/02/24 03:08:22;;;;;;;22.50;11.13;;;;;;;;;;5113404;28;20051;-49
2022/02/24 03:10:49;;;;;;;21.05;10.25;;;;;;;;;;5113586;28;20032;-48
2022/02/24 03:13:16;;;;;;;25.63;12.18;;;;;;;;;;5113241;28;20024;-49
2022/02/24 03:15:42;;;;;;;24.13;11.38;;;;;;;;;;5113397;28;20024;-49
2022/02/24 03:18:11;;;;;;;19.88;10.40;;;;;;;;;;5113485;28;20371;-49
2022/02/24 03:20:37;;;;;;;18.80;9.20;;;;;;;;;;5113526;28;20026;-48
2022/02/24 03:23:05;;;;;;;20.50;11.27;;;;;;;;;;5113325;28;20019;-47
2022/02/24 03:25:34;;;;;;;19.23;9.02;;;;;;;;;;5113433;28;20032;-49
2022/02/24 03:28:00;;;;;;;20.20;9.32;;;;;;;;;;5113108;28;20027;-50
2022/02/24 03:30:27;;;;;;;26.23;14.25;;;;;;;;;;5113082;28;20562;-47
2022/02/24 03:32:54;;;;;;;22.45;11.07;;;;;;;;;;5113347;28;20032;-49
2022/02/24 03:35:20;;;;;;;29.52;13.23;;;;;;;;;;5113513;28;20035;-50
2022/02/24 03:37:49;;;;;;;30.88;11.48;;;;;;;;;;5113038;28;20111;-50
2022/02/24 03:40:16;;;;;;;23.58;10.52;;;;;;;;;;5113128;28;20030;-49
2022/02/24 03:42:43;;;;;;;28.15;12.55;;;;;;;;;;5116847;28;20039;-49
2022/02/24 03:45:14;;;;;;;26.98;11.45;;;;;;;;;;5116917;28;20031;-48
2022/02/24 03:47:40;;;;;;;31.13;12.18;;;;;;;;;;5117127;28;20015;-48
2022/02/24 03:50:08;;;;;;;32.05;12.23;;;;;;;;;;5116837;28;20039;-49
2022/02/24 03:52:34;;;;;;;21.10;10.25;;;;;;;;;;5116958;28;20077;-49
2022/02/24 03:55:00;;;;;;;25.60;10.13;;;;;;;;;;5116733;28;20019;-49
2022/02/24 03:57:26;;;;;;;21.73;9.90;;;;;;;;;;5116857;28;20040;-48
2022/02/24 03:59:53;;;;;;;27.25;9.20;;;;;;;;;;5116852;28;20046;-49
2022/02/24 04:02:19;;;;;;;19.10;8.40;;;;;;;;;;5116720;28;20051;-49
2022/02/24 04:04:45;;;;;;;23.65;9.27;;;;;;;;;;5116728;28;20077;-49
2022/02/24 04:07:11;;;;;;;23.10;10.10;;;;;;;;;;5116537;28;20027;-50
2022/02/24 04:09:38;;;;;;;22.00;10.50;;;;;;;;;;5116654;28;20111;-49
2022/02/24 04:12:05;;;;;;;27.00;11.07;;;;;;;;;;5116650;28;20056;-48
2022/02/24 04:14:31;;;;;;;21.15;11.05;;;;;;;;;;5116824;28;20046;-50
2022/02/24 04:16:59;;;;;;;26.98;12.40;;;;;;;;;;5116537;28;20034;-49
2022/02/24 04:19:25;;;;;;;26.88;11.45;;;;;;;;;;5116353;28;20036;-48
2022/02/24 04:21:51;;;;;;;42.85;17.08;;;;;;;;;;5116427;28;20059;-50
2022/02/24 04:24:17;;;;;;;84.15;33.80;;;;;;;;;;5116381;28;20024;-48
2022/02/24 04:26:43;;;;;;;54.15;22.17;;;;;;;;;;5116298;28;20038;-47
2022/02/24 04:29:09;;;;;;;46.63;19.80;;;;;;;;;;5116140;28;20042;-48
2022/02/24 04:31:36;;;;;;;42.20;18.13;;;;;;;;;;5116096;28;20024;-49
2022/02/24 04:34:02;;;;;;;39.97;15.13;;;;;;;;;;5116210;28;20032;-49
2022/02/24 04:36:30;;;;;;;39.45;16.35;;;;;;;;;;5116055;28;20020;-48
2022/02/24 04:38:58;;;;;;;62.70;28.45;;;;;;;;;;5115842;28;20056;-49
2022/02/24 04:41:24;;;;;;;30.33;15.27;;;;;;;;;;5115843;28;20557;-49
2022/02/24 04:43:50;;;;;;;39.30;13.23;;;;;;;;;;5115910;28;20124;-50
2022/02/24 04:46:16;;;;;;;32.08;15.80;;;;;;;;;;5115973;28;20065;-50
2022/02/24 04:48:42;;;;;;;31.33;13.20;;;;;;;;;;5116003;28;20050;-51
2022/02/24 04:51:09;;;;;;;33.70;16.00;;;;;;;;;;5115644;28;20019;-50
2022/02/24 04:53:37;;;;;;;23.05;12.25;;;;;;;;;;5114974;28;20471;-50
2022/02/24 04:56:03;;;;;;;25.85;11.40;;;;;;;;;;5115556;28;20592;-49
2022/02/24 04:58:29;;;;;;;31.48;14.88;;;;;;;;;;5115321;28;20036;-49
2022/02/24 05:00:55;;;;;;;25.98;11.75;;;;;;;;;;5115601;28;20030;-49
2022/02/24 05:03:24;;;;;;;29.42;12.88;;;;;;;;;;5115661;28;20028;-50
2022/02/24 05:05:50;;;;;;;25.00;12.63;;;;;;;;;;5115510;28;20399;-49
2022/02/24 05:08:16;;;;;;;27.15;12.20;;;;;;;;;;5115478;28;20020;-49
2022/02/24 05:10:42;;;;;;;29.45;11.20;;;;;;;;;;5115281;28;20023;-46
2022/02/24 05:13:08;;;;;;;30.60;12.38;;;;;;;;;;5096963;28;20028;-49
2022/02/24 05:15:34;;;;;;;37.38;12.38;;;;;;;;;;5115176;28;20030;-52
2022/02/24 05:18:00;;;;;;;39.33;14.32;;;;;;;;;;5115167;28;20386;-50
2022/02/24 05:20:26;;;;;;;48.80;19.33;;;;;;;;;;5115187;28;20028;-48
2022/02/24 05:22:52;;;;;;;48.20;20.55;;;;;;;;;;5115242;28;20015;-53
2022/02/24 05:25:18;;;;;;;49.65;22.20;;;;;;;;;;5115688;28;20371;-53
2022/02/24 05:27:45;;;;;;;49.17;24.02;;;;;;;;;;5115028;28;20103;-45
2022/02/24 05:30:12;;;;;;;44.67;17.90;;;;;;;;;;5114825;28;20047;-45
2022/02/24 05:32:39;;;;;;;25.02;11.35;;;;;;;;;;5114922;28;20099;-45
2022/02/24 05:35:05;;;;;;;29.80;13.63;;;;;;;;;;5115000;28;20046;-47
2022/02/24 05:37:32;;;;;;;34.70;16.00;;;;;;;;;;5114771;28;20051;-46
2022/02/24 05:39:58;;;;;;;33.05;15.63;;;;;;;;;;5114776;28;20025;-45
2022/02/24 05:42:25;;;;;;;26.65;13.63;;;;;;;;;;5114542;28;20024;-51
2022/02/24 05:44:51;;;;;;;26.70;13.85;;;;;;;;;;5114514;28;20537;-54
2022/02/24 05:47:17;;;;;;;39.08;20.60;;;;;;;;;;5114682;28;20023;-53
2022/02/24 05:49:44;;;;;;;59.55;31.85;;;;;;;;;;5096138;28;20110;-46
2022/02/24 05:52:11;;;;;;;48.28;20.73;;;;;;;;;;5114506;28;20050;-46
2022/02/24 05:54:37;;;;;;;39.97;19.38;;;;;;;;;;5113011;28;20019;-50
2022/02/24 05:57:04;;;;;;;45.85;22.40;;;;;;;;;;5114503;28;20051;-45
2022/02/24 05:59:30;;;;;;;30.52;14.63;;;;;;;;;;5114320;28;20031;-46
2022/02/24 06:01:58;;;;;;;45.20;23.80;;;;;;;;;;5114358;28;20118;-50
2022/02/24 06:04:26;;;;;;;44.15;21.95;;;;;;;;;;5114190;28;20114;-45
2022/02/24 06:06:52;;;;;;;41.55;19.63;;;;;;;;;;5114217;28;20027;-45
2022/02/24 06:09:18;;;;;;;37.55;17.00;;;;;;;;;;5114334;28;20046;-49
2022/02/24 06:11:46;;;;;;;30.23;17.00;;;;;;;;;;5114156;28;20030;-45
2022/02/24 06:14:12;;;;;;;35.38;17.83;;;;;;;;;;5114367;28;20523;-55
2022/02/24 06:16:38;;;;;;;49.38;25.55;;;;;;;;;;5114330;28;20027;-53
2022/02/24 06:19:04;;;;;;;51.92;29.13;;;;;;;;;;5114452;28;20154;-49
2022/02/24 06:21:30;;;;;;;42.55;25.10;;;;;;;;;;5114290;28;20016;-60
2022/02/24 06:23:56;;;;;;;36.97;21.65;;;;;;;;;;5114288;28;20479;-59
2022/02/24 06:26:25;;;;;;;53.40;29.27;;;;;;;;;;5113915;28;20030;-58
2022/02/24 06:28:51;;;;;;;40.03;24.92;;;;;;;;;;5114047;28;20491;-45
2022/02/24 06:31:17;;;;;;;43.55;26.77;;;;;;;;;;5093504;28;20123;-47
2022/02/24 06:33:44;;;;;;;29.77;17.60;;;;;;;;;;5093268;28;20054;-54
2022/02/24 06:36:13;;;;;;;34.85;17.00;;;;;;;;;;5093480;28;20055;-43
2022/02/24 06:38:39;;;;;;;35.45;18.65;;;;;;;;;;5093213;28;20504;-45
2022/02/24 06:41:05;;;;;;;34.13;17.02;;;;;;;;;;5093454;28;20115;-57
2022/02/24 06:43:31;;;;;;;69.25;36.20;;;;;;;;;;5093508;28;20024;-58
2022/02/24 06:45:57;;;;;;;117.82;62.38;;;;;;;;;;5093522;28;20101;-50
2022/02/24 06:48:27;;;;;;;132.10;67.95;;;;;;;;;;5093524;28;20116;-56
2022/02/24 06:50:53;;;;;;;94.88;50.25;;;;;;;;;;5093427;28;20038;-57
2022/02/24 06:53:19;;;;;;;74.13;39.67;;;;;;;;;;5093312;28;20480;-59
2022/02/24 06:55:46;;;;;;;41.72;22.17;;;;;;;;;;5093083;28;20447;-55
2022/02/24 06:58:12;;;;;;;37.45;18.77;;;;;;;;;;5093129;28;20111;-58
2022/02/24 07:00:38;;;;;;;50.35;23.45;;;;;;;;;;5093508;28;20476;-57
2022/02/24 07:03:04;;;;;;;40.22;19.48;;;;;;;;;;5093318;28;20055;-57
2022/02/24 07:05:30;;;;;;;39.05;20.77;;;;;;;;;;5093197;28;20024;-55
2022/02/24 07:07:58;;;;;;;29.55;18.02;;;;;;;;;;5093190;28;20028;-58
2022/02/24 07:10:24;;;;;;;27.00;14.00;;;;;;;;;;5093052;28;20392;-59
2022/02/24 07:12:50;;;;;;;34.75;18.23;;;;;;;;;;5092861;28;20020;-58
2022/02/24 07:15:16;;;;;;;34.97;17.50;;;;;;;;;;5092868;28;20034;-58
2022/02/24 07:17:43;;;;;;;26.08;14.00;;;;;;;;;;5097044;28;20024;-56
2022/02/24 07:20:10;;;;;;;35.00;18.80;;;;;;;;;;5097231;28;20028;-58
2022/02/24 07:22:36;;;;;;;47.90;24.30;;;;;;;;;;5097147;28;20031;-59
2022/02/24 07:25:03;;;;;;;34.53;18.20;;;;;;;;;;5096948;28;20028;-56
2022/02/24 07:27:29;;;;;;;26.33;15.27;;;;;;;;;;5078562;28;20438;-55
2022/02/24 07:29:55;;;;;;;23.63;13.27;;;;;;;;;;5105675;28;20101;-58
2022/02/24 07:32:21;;;;;;;23.23;12.52;;;;;;;;;;5117335;28;20381;-53
2022/02/24 07:34:48;;;;;;;20.52;11.43;;;;;;;;;;5117491;28;20027;-61
2022/02/24 07:37:14;;;;;;;26.48;13.50;;;;;;;;;;5117311;28;20456;-58
2022/02/24 07:39:40;;;;;;;28.38;17.42;;;;;;;;;;5117125;28;20089;-60
2022/02/24 07:42:06;;;;;;;24.45;13.55;;;;;;;;;;5116979;28;20028;-56
2022/02/24 07:44:32;;;;;;;16.23;10.18;;;;;;;;;;5117469;28;20027;-44
2022/02/24 07:46:58;;;;;;;24.70;13.90;;;;;;;;;;5117120;28;20019;-45
2022/02/24 07:49:26;;;;;;;38.90;20.17;;;;;;;;;;5117155;28;20522;-56
2022/02/24 07:51:52;;;;;;;28.95;15.65;;;;;;;;;;5117024;28;20157;-46
2022/02/24 07:54:22;;;;;;;36.63;20.23;;;;;;;;;;5117219;28;20133;-55
2022/02/24 07:56:50;;;;;;;35.08;16.98;;;;;;;;;;5116837;28;20068;-45
2022/02/24 07:59:17;;;;;;;63.95;31.50;;;;;;;;;;5116554;28;20073;-44
2022/02/24 08:01:43;;;;;;;29.45;15.30;;;;;;;;;;5116885;28;20031;-56
2022/02/24 08:04:09;;;;;;;26.75;13.88;;;;;;;;;;5116773;28;20031;-52
2022/02/24 08:06:36;;;;;;;32.95;16.13;;;;;;;;;;5116694;28;20444;-52
2022/02/24 08:09:02;;;;;;;73.38;34.50;;;;;;;;;;5116636;28;20024;-42
2022/02/24 08:11:28;;;;;;;59.72;30.58;;;;;;;;;;5116423;28;20022;-50
2022/02/24 08:13:54;;;;;;;46.55;23.05;;;;;;;;;;5116458;28;20028;-46
2022/02/24 08:16:20;;;;;;;27.15;12.75;;;;;;;;;;5116418;28;20020;-43
2022/02/24 08:18:46;;;;;;;52.28;30.52;;;;;;;;;;5116405;28;20479;-51
2022/02/24 08:21:12;;;;;;;37.58;19.70;;;;;;;;;;5116382;28;20499;-47
2022/02/24 08:23:38;;;;;;;43.58;21.42;;;;;;;;;;5116562;28;20075;-50
2022/02/24 08:26:04;;;;;;;29.85;13.98;;;;;;;;;;5116393;28;20073;-48
2022/02/24 08:28:30;;;;;;;32.85;14.00;;;;;;;;;;5114751;28;20478;-49
2022/02/24 08:34:00;;;;;;;28.60;13.40;;;;;;;;;;5116452;28;20062;-44
2022/02/24 08:36:26;;;;;;;23.67;11.07;;;;;;;;;;5116569;28;20024;-47
2022/02/24 08:38:52;;;;;;;26.90;10.13;;;;;;;;;;5115897;28;20034;-48
2022/02/24 08:41:18;;;;;;;26.38;11.73;;;;;;;;;;5116066;28;20050;-47
2022/02/24 08:43:44;;;;;;;22.23;11.38;;;;;;;;;;5116222;28;20038;-49
2022/02/24 08:46:10;;;;;;;27.63;13.52;;;;;;;;;;5116023;28;20034;-49
2022/02/24 08:48:36;;;;;;;24.13;10.55;;;;;;;;;;5115867;28;20077;-48
2022/02/24 08:51:02;;;;;;;32.35;16.63;;;;;;;;;;5115795;28;20028;-50
2022/02/24 08:53:28;;;;;;;31.05;13.23;;;;;;;;;;5115653;28;20063;-51
2022/02/24 08:55:54;;;;;;;28.55;14.50;;;;;;;;;;5115823;28;20023;-56
2022/02/24 08:58:20;;;;;;;17.13;8.00;;;;;;;;;;5115778;28;20030;-53
2022/02/24 09:00:47;;;;;;;17.27;7.97;;;;;;;;;;5116044;28;20086;-52
2022/02/24 09:03:16;;;;;;;31.27;15.00;;;;;;;;;;5115852;28;20031;-49
2022/02/24 09:05:44;;;;;;;21.92;9.82;;;;;;;;;;5115915;28;20027;-52
2022/02/24 09:08:11;;;;;;;17.55;9.73;;;;;;;;;;5115605;28;20102;-51
2022/02/24 09:10:37;;;;;;;15.95;6.50;;;;;;;;;;5097380;28;20036;-45
2022/02/24 09:13:03;;;;;;;16.08;7.10;;;;;;;;;;5115896;28;20024;-51
2022/02/24 09:15:32;;;;;;;16.65;6.50;;;;;;;;;;5115523;28;20028;-47
2022/02/24 09:17:58;;;;;;;22.02;8.35;;;;;;;;;;5115436;28;20026;-47
2022/02/24 09:20:24;;;;;;;19.63;9.93;;;;;;;;;;5115210;28;20039;-50
2022/02/24 09:22:50;;;;;;;15.57;7.35;;;;;;;;;;5115305;28;20544;-47
2022/02/24 09:25:17;;;;;;;27.52;14.63;;;;;;;;;;5115480;28;20115;-52
2022/02/24 09:27:43;;;;;;;10.68;5.53;;;;;;;;;;5115516;28;20373;-50
2022/02/24 09:30:11;;;;;;;16.55;8.45;;;;;;;;;;5114911;28;20048;-53
2022/02/24 09:32:39;;;;;;;15.25;6.30;;;;;;;;;;5115059;28;20512;-54
2022/02/24 09:35:06;;;;;;;9.75;5.25;;;;;;;;;;5115052;28;20502;-49
2022/02/24 09:37:34;;;;;;;9.05;4.88;;;;;;;;;;5114989;28;20387;-52
2022/02/24 09:40:02;;;;;;;10.77;5.50;;;;;;;;;;5114706;28;20126;-54
2022/02/24 09:42:28;;;;;;;12.13;4.97;;;;;;;;;;5115081;28;20043;-54
2022/02/24 09:44:57;;;;;;;11.82;5.50;;;;;;;;;;5114938;28;20434;-53
2022/02/24 09:47:24;;;;;;;12.13;5.28;;;;;;;;;;5115023;28;20487;-54
2022/02/24 09:49:53;;;;;;;9.52;4.78;;;;;;;;;;5114818;28;20093;-52
2022/02/24 09:52:19;;;;;;;12.95;6.07;;;;;;;;;;5114838;28;20024;-54
2022/02/24 09:54:45;;;;;;;16.30;6.82;;;;;;;;;;5114931;28;20110;-52
2022/02/24 09:57:11;;;;;;;14.98;7.20;;;;;;;;;;5114639;28;20024;-52
2022/02/24 09:59:37;;;;;;;15.88;6.90;;;;;;;;;;5114610;28;20039;-52
2022/02/24 10:02:04;;;;;;;21.02;7.45;;;;;;;;;;5114752;28;20019;-51
2022/02/24 10:04:30;;;;;;;24.00;13.32;;;;;;;;;;5114697;28;20030;-52
2022/02/24 10:06:56;;;;;;;21.10;9.18;;;;;;;;;;5114474;28;20405;-51
2022/02/24 10:09:32;;;;;;;17.48;7.70;;;;;;;;;;5114493;28;20047;-51
2022/02/24 10:12:07;;;;;;;12.65;5.00;;;;;;;;;;5114550;28;20039;-53
2022/02/24 10:14:34;;;;;;;20.88;9.68;;;;;;;;;;5114444;28;20378;-52
2022/02/24 10:17:05;;;;;;;22.15;9.40;;;;;;;;;;5095705;28;20028;-55
2022/02/24 10:19:37;;;;;;;22.65;11.07;;;;;;;;;;5114170;28;20028;-53
2022/02/24 10:22:06;;;;;;;12.05;4.78;;;;;;;;;;5114548;28;20055;-51
2022/02/24 10:24:32;;;;;;;22.73;9.63;;;;;;;;;;5114515;28;20472;-52
2022/02/24 10:27:16;;;;;;;10.27;4.63;;;;;;;;;;5114106;28;20024;-52
2022/02/24 10:30:05;;;;;;;13.32;6.70;;;;;;;;;;5113997;28;20066;-53
2022/02/24 10:32:52;;;;;;;21.02;10.07;;;;;;;;;;5114259;28;20023;-52
2022/02/24 10:35:19;;;;;;;16.55;6.75;;;;;;;;;;5114006;28;20042;-51
2022/02/24 10:37:51;;;;;;;14.38;7.20;;;;;;;;;;5114318;28;20042;-52
2022/02/24 10:40:17;;;;;;;9.65;4.38;;;;;;;;;;5114060;28;20035;-52
2022/02/24 10:42:43;;;;;;;13.30;6.57;;;;;;;;;;5114105;28;20098;-51
2022/02/24 10:45:11;;;;;;;40.30;22.38;;;;;;;;;;5113799;28;20035;-52
2022/02/24 10:47:54;;;;;;;18.55;8.70;;;;;;;;;;5113882;28;20049;-52
2022/02/24 10:50:20;;;;;;;8.13;3.25;;;;;;;;;;5113289;28;20028;-53
2022/02/24 10:52:46;;;;;;;4.38;2.35;;;;;;;;;;5113814;28;20019;-52
2022/02/24 10:55:12;;;;;;;7.55;3.17;;;;;;;;;;5113556;28;20019;-53
2022/02/24 10:57:38;;;;;;;10.48;3.55;;;;;;;;;;5113600;28;20476;-53
2022/02/24 11:00:05;;;;;;;12.48;4.30;;;;;;;;;;5113695;28;20074;-51
2022/02/24 11:02:31;;;;;;;9.35;3.90;;;;;;;;;;5113855;28;20024;-54
2022/02/24 11:04:59;;;;;;;13.98;4.43;;;;;;;;;;5113547;28;20020;-54
2022/02/24 11:07:25;;;;;;;7.22;2.47;;;;;;;;;;5113857;28;20340;-53
2022/02/24 11:09:51;;;;;;;4.68;1.98;;;;;;;;;;5113639;28;20027;-52
2022/02/24 11:12:19;;;;;;;7.93;2.95;;;;;;;;;;5113437;28;20028;-53
2022/02/24 11:14:46;;;;;;;9.75;3.13;;;;;;;;;;5113320;28;20506;-53
2022/02/24 11:17:13;;;;;;;7.68;2.75;;;;;;;;;;5113529;28;20027;-54
2022/02/24 11:19:40;;;;;;;6.88;2.33;;;;;;;;;;5113314;28;20036;-53
2022/02/24 11:22:09;;;;;;;7.10;3.40;;;;;;;;;;5113486;28;20024;-55
2022/02/24 11:24:36;;;;;;;8.43;2.42;;;;;;;;;;5113420;28;20500;-53
2022/02/24 11:27:22;;;;;;;10.38;3.83;;;;;;;;;;5113424;28;20047;-53
2022/02/24 11:29:57;;;;;;;10.38;2.55;;;;;;;;;;5113059;28;20096;-55
2022/02/24 11:32:24;;;;;;;6.90;2.63;;;;;;;;;;5113576;28;20115;-53
2022/02/24 11:34:53;;;;;;;5.35;2.50;;;;;;;;;;5113276;28;20028;-54
2022/02/24 11:37:23;;;;;;;5.57;2.35;;;;;;;;;;5121077;28;20024;-54
2022/02/24 11:39:49;;;;;;;8.52;3.45;;;;;;;;;;5133820;28;20031;-49
2022/02/24 11:42:31;;;;;;;9.45;3.80;;;;;;;;;;5134153;28;20026;-58
2022/02/24 11:44:57;;;;;;;7.90;3.00;;;;;;;;;;5133999;28;20444;-52
2022/02/24 11:47:24;;;;;;;10.00;2.78;;;;;;;;;;5133427;28;20470;-53
2022/02/24 11:49:59;;;;;;;9.65;3.78;;;;;;;;;;5133512;28;20072;-57
2022/02/24 11:52:25;;;;;;;13.52;5.03;;;;;;;;;;5133368;28;20016;-52
2022/02/24 11:54:52;;;;;;;19.35;8.48;;;;;;;;;;5133639;28;20078;-52
2022/02/24 11:57:32;;;;;;;12.52;5.15;;;;;;;;;;5133690;28;20023;-53
2022/02/24 12:00:10;;;;;;;11.70;4.60;;;;;;;;;;5133376;28;20074;-52
2022/02/24 12:02:42;;;;;;;9.20;4.10;;;;;;;;;;5135723;27;20111;-55
2022/02/24 12:05:19;;;;;;;8.13;2.63;;;;;;;;;;5137523;27;20030;-54
2022/02/24 12:08:05;;;;;;;9.82;3.13;;;;;;;;;;5137291;27;20509;-55
2022/02/24 12:10:43;;;;;;;9.95;3.72;;;;;;;;;;5137210;27;20034;-55
2022/02/24 12:13:30;;;;;;;8.43;2.83;;;;;;;;;;5137381;27;20042;-54
2022/02/24 12:16:18;;;;;;;31.80;15.20;;;;;;;;;;5137528;27;20026;-57
2022/02/24 12:18:45;;;;;;;10.93;3.72;;;;;;;;;;5137721;27;20107;-57
2022/02/24 12:21:26;;;;;;;6.45;2.85;;;;;;;;;;5137286;27;20042;-57
2022/02/24 12:23:54;;;;;;;8.43;3.78;;;;;;;;;;5137015;27;20020;-55
2022/02/24 12:26:37;;;;;;;7.22;3.20;;;;;;;;;;5136841;27;20367;-51
2022/02/24 12:29:26;;;;;;;8.55;3.03;;;;;;;;;;5136962;27;20076;-54
2022/02/24 12:31:58;;;;;;;8.30;4.80;;;;;;;;;;5136545;27;20027;-54
2022/02/24 12:34:24;;;;;;;;;;;;;;;;;;5137205;27;20474;-49
2022/02/24 12:36:50;;;;;;;10.02;3.88;;;;;;;;;;5136998;27;20010;-53
2022/02/24 12:39:19;;;;;;;6.80;2.80;;;;;;;;;;5136493;27;20031;-52
2022/02/24 12:41:45;;;;;;;8.65;3.72;;;;;;;;;;5136744;27;20034;-53
2022/02/24 12:44:26;;;;;;;13.88;5.72;;;;;;;;;;5136373;27;20031;-53
2022/02/24 12:46:53;;;;;;;10.27;4.40;;;;;;;;;;5136508;27;20019;-53
2022/02/24 12:49:19;;;;;;;14.20;7.00;;;;;;;;;;5136361;27;20038;-53
2022/02/24 12:51:46;;;;;;;10.75;4.38;;;;;;;;;;5136537;27;20026;-53
2022/02/24 12:54:15;;;;;;;11.55;3.75;;;;;;;;;;5136327;27;20026;-53
2022/02/24 12:56:41;;;;;;;12.07;4.97;;;;;;;;;;5136676;27;20138;-54
2022/02/24 12:59:11;;;;;;;9.68;3.75;;;;;;;;;;5136130;27;20031;-52
2022/02/24 13:01:38;;;;;;;7.43;3.63;;;;;;;;;;5136206;27;20039;-52
2022/02/24 13:04:14;;;;;;;50.55;20.90;;;;;;;;;;5136273;27;20031;-52
2022/02/24 13:06:43;;;;;;;15.98;6.32;;;;;;;;;;5136329;27;20028;-52
2022/02/24 13:12:04;;;;;;;12.35;4.03;;;;;;;;;;5136024;27;20054;-53
2022/02/24 13:14:31;;;;;;;10.60;5.07;;;;;;;;;;5135593;27;20027;-53
2022/02/24 13:16:57;;;;;;;9.05;4.13;;;;;;;;;;5136039;27;20050;-53
2022/02/24 13:19:24;;;;;;;7.60;3.20;;;;;;;;;;5135766;27;20015;-52
2022/02/24 13:21:57;;;;;;;9.50;2.55;;;;;;;;;;5135840;27;20031;-51
2022/02/24 13:24:25;;;;;;;6.53;3.20;;;;;;;;;;5135922;27;20353;-53
2022/02/24 13:26:51;;;;;;;8.20;3.08;;;;;;;;;;5135624;27;20050;-53
2022/02/24 13:29:20;;;;;;;8.07;2.80;;;;;;;;;;5135516;27;20081;-53
2022/02/24 13:31:49;;;;;;;8.82;3.78;;;;;;;;;;5135842;27;20046;-53
2022/02/24 13:34:20;;;;;;;6.78;3.88;;;;;;;;;;5135794;27;20027;-53
2022/02/24 13:36:46;;;;;;;11.85;4.20;;;;;;;;;;5135804;27;20023;-53
2022/02/24 13:39:31;;;;;;;8.95;3.30;;;;;;;;;;5135420;27;20046;-53
2022/02/24 13:41:59;;;;;;;9.10;2.88;;;;;;;;;;5135704;27;20019;-52
2022/02/24 13:44:26;;;;;;;6.65;2.72;;;;;;;;;;5135463;27;20015;-53
2022/02/24 13:47:02;;;;;;;9.30;3.30;;;;;;;;;;5135283;27;20011;-53
2022/02/24 13:49:35;;;;;;;9.50;3.45;;;;;;;;;;5135384;27;20022;-53
2022/02/24 13:52:03;;;;;;;9.40;3.65;;;;;;;;;;5135505;27;20027;-48
2022/02/24 13:54:29;;;;;;;11.70;4.28;;;;;;;;;;5135161;27;20027;-45
2022/02/24 13:56:56;;;;;;;11.27;4.15;;;;;;;;;;5135433;27;20027;-47
2022/02/24 13:59:23;;;;;;;6.93;3.10;;;;;;;;;;5135153;27;20072;-46
2022/02/24 14:01:53;;;;;;;9.35;3.72;;;;;;;;;;5135268;27;20085;-53
2022/02/24 14:04:21;;;;;;;10.88;3.00;;;;;;;;;;5134853;27;20019;-53
2022/02/24 14:06:48;;;;;;;6.88;3.28;;;;;;;;;;5116485;27;20436;-52
2022/02/24 14:09:21;;;;;;;13.05;4.47;;;;;;;;;;5135021;27;20051;-52
2022/02/24 14:11:47;;;;;;;5.88;2.78;;;;;;;;;;5134927;27;20029;-53
2022/02/24 14:14:13;;;;;;;7.57;3.10;;;;;;;;;;5134792;27;20068;-52
2022/02/24 14:16:39;;;;;;;15.68;7.07;;;;;;;;;;5134755;27;20084;-43
2022/02/24 14:19:13;;;;;;;9.57;3.40;;;;;;;;;;5134563;27;20059;-46
2022/02/24 14:21:39;;;;;;;8.48;3.63;;;;;;;;;;5134724;27;20029;-46
2022/02/24 14:24:06;;;;;;;10.93;3.80;;;;;;;;;;5134563;27;20019;-46
2022/02/24 14:26:33;;;;;;;10.05;2.90;;;;;;;;;;5133591;27;20087;-45
2022/02/24 14:28:59;;;;;;;17.13;8.07;;;;;;;;;;5134497;27;20447;-46
2022/02/24 14:31:27;;;;;;;13.80;5.20;;;;;;;;;;5134536;27;20088;-44